VEG YSSY-YSSY
Flight info
| Callsign | VEG |
|---|---|
| Flight time | 0h 15m |
| Altitude | 1500 |
| Route | |
| Aircraft | RV10/1-G/C |
Departure
| Time | 2026-04-24 14:00 |
|---|---|
| Airport | Sydney Kingsford Smith International Airport (YSSY) |
Arrival
| Time | 2026-04-24 14:15 |
|---|---|
| Airport | Sydney Kingsford Smith International Airport (YSSY) |
| Time | Latitude | Longitude | Altitude | Speed | Heading |
|---|---|---|---|---|---|
| 2026-04-24 13:55 | -33.93545 | 151.18959 | 22 ft | 0 kts | 178° |
| 2026-04-24 13:55 | -33.93545 | 151.18961 | 22 ft | 0 kts | 172° |
| 2026-04-24 13:55 | -33.93545 | 151.18959 | 22 ft | 0 kts | 181° |
| 2026-04-24 13:56 | -33.93546 | 151.18961 | 22 ft | 0 kts | 165° |
| 2026-04-24 13:56 | -33.93547 | 151.18961 | 22 ft | 0 kts | 162° |
| 2026-04-24 13:57 | -33.93562 | 151.18965 | 22 ft | 11 kts | 178° |
| 2026-04-24 13:57 | -33.93653 | 151.18951 | 22 ft | 22 kts | 165° |
| 2026-04-24 13:58 | -33.93793 | 151.18814 | 22 ft | 48 kts | 259° |
| 2026-04-24 13:58 | -33.94034 | 151.18367 | 172 ft | 73 kts | 151° |
| 2026-04-24 13:58 | -33.94152 | 151.18964 | 379 ft | 95 kts | 76° |
| 2026-04-24 13:58 | -33.93933 | 151.19756 | 551 ft | 94 kts | 28° |
| 2026-04-24 13:59 | -33.93704 | 151.19136 | 186 ft | 117 kts | 249° |
| 2026-04-24 13:59 | -33.93916 | 151.18286 | 21 ft | 90 kts | 248° |
| 2026-04-24 13:59 | -33.94076 | 151.17630 | 8 ft | 92 kts | 251° |
| 2026-04-24 13:59 | -33.94288 | 151.16725 | 16 ft | 130 kts | 249° |
| 2026-04-24 14:00 | -33.94603 | 151.16150 | 631 ft | 80 kts | 128° |
| 2026-04-24 14:00 | -33.94474 | 151.17038 | 465 ft | 132 kts | 72° |
| 2026-04-24 14:00 | -33.94168 | 151.18188 | 427 ft | 157 kts | 80° |
| 2026-04-24 14:00 | -33.94085 | 151.19495 | 495 ft | 163 kts | 92° |
| 2026-04-24 14:01 | -33.93689 | 151.19710 | 644 ft | 142 kts | 292° |
| 2026-04-24 14:01 | -33.93834 | 151.18652 | 33 ft | 117 kts | 251° |
| 2026-04-24 14:01 | -33.94047 | 151.17752 | 7 ft | 123 kts | 258° |
| 2026-04-24 14:01 | -33.94307 | 151.16660 | 15 ft | 146 kts | 252° |
| 2026-04-24 14:02 | -33.94542 | 151.16509 | 463 ft | 106 kts | 57° |
| 2026-04-24 14:02 | -33.94277 | 151.17564 | 268 ft | 147 kts | 80° |
| 2026-04-24 14:02 | -33.94130 | 151.18697 | 484 ft | 126 kts | 87° |
| 2026-04-24 14:02 | -33.94147 | 151.19730 | 433 ft | 117 kts | 71° |
| 2026-04-24 14:03 | -33.93631 | 151.19720 | 156 ft | 121 kts | 272° |
| 2026-04-24 14:03 | -33.93801 | 151.18779 | 29 ft | 104 kts | 251° |
| 2026-04-24 14:03 | -33.93976 | 151.18042 | 34 ft | 98 kts | 246° |
| 2026-04-24 14:03 | -33.94194 | 151.17102 | 151 ft | 131 kts | 247° |
| 2026-04-24 14:04 | -33.94472 | 151.16223 | 520 ft | 98 kts | 137° |
| 2026-04-24 14:04 | -33.94297 | 151.17160 | 349 ft | 141 kts | 72° |
| 2026-04-24 14:04 | -33.94040 | 151.18391 | 404 ft | 153 kts | 90° |
| 2026-04-24 14:04 | -33.94107 | 151.19522 | 599 ft | 113 kts | 111° |
| 2026-04-24 14:05 | -33.93995 | 151.20186 | 565 ft | 105 kts | 358° |
| 2026-04-24 14:05 | -33.93579 | 151.19592 | 351 ft | 92 kts | 241° |
| 2026-04-24 14:05 | -33.93801 | 151.18782 | 44 ft | 99 kts | 248° |
| 2026-04-24 14:05 | -33.93984 | 151.18019 | 11 ft | 110 kts | 250° |
| 2026-04-24 14:06 | -33.94229 | 151.16988 | 17 ft | 140 kts | 252° |
| 2026-04-24 14:06 | -33.94535 | 151.16551 | 418 ft | 98 kts | 65° |
| 2026-04-24 14:06 | -33.94252 | 151.17467 | 449 ft | 129 kts | 75° |
| 2026-04-24 14:06 | -33.94072 | 151.18630 | 432 ft | 153 kts | 84° |
| 2026-04-24 14:07 | -33.94255 | 151.19846 | 836 ft | 132 kts | 79° |
| 2026-04-24 14:07 | -33.93597 | 151.19595 | 343 ft | 142 kts | 272° |
| 2026-04-24 14:07 | -33.93839 | 151.18631 | 26 ft | 109 kts | 250° |
| 2026-04-24 14:07 | -33.94029 | 151.17839 | 7 ft | 110 kts | 252° |
| 2026-04-24 14:08 | -33.94266 | 151.16812 | 17 ft | 137 kts | 254° |
| 2026-04-24 14:08 | -33.94593 | 151.16368 | 273 ft | 101 kts | 63° |
| 2026-04-24 14:08 | -33.94307 | 151.17303 | 273 ft | 134 kts | 78° |
| 2026-04-24 14:08 | -33.94101 | 151.18530 | 164 ft | 161 kts | 84° |
| 2026-04-24 14:09 | -33.93991 | 151.19772 | 558 ft | 138 kts | 49° |
| 2026-04-24 14:09 | -33.93744 | 151.19011 | 134 ft | 130 kts | 245° |
| 2026-04-24 14:09 | -33.93965 | 151.18098 | 12 ft | 93 kts | 248° |
| 2026-04-24 14:09 | -33.94183 | 151.17195 | 17 ft | 133 kts | 249° |
| 2026-04-24 14:10 | -33.94386 | 151.16444 | 139 ft | 133 kts | 214° |
| 2026-04-24 14:10 | -33.94270 | 151.17477 | 299 ft | 139 kts | 80° |
| 2026-04-24 14:10 | -33.94039 | 151.18678 | 361 ft | 156 kts | 79° |
| 2026-04-24 14:10 | -33.93762 | 151.19806 | 694 ft | 125 kts | 345° |
| 2026-04-24 14:11 | -33.93742 | 151.18985 | 156 ft | 135 kts | 248° |
| 2026-04-24 14:11 | -33.93998 | 151.17934 | 256 ft | 134 kts | 243° |
| 2026-04-24 14:11 | -33.94041 | 151.19290 | 483 ft | 129 kts | 83° |
| 2026-04-24 14:12 | -33.93977 | 151.20503 | 399 ft | 157 kts | 90° |
| 2026-04-24 14:12 | -33.94058 | 151.21858 | 428 ft | 165 kts | 101° |
| 2026-04-24 14:12 | -33.94199 | 151.23312 | 322 ft | 177 kts | 95° |
| 2026-04-24 14:12 | -33.94252 | 151.24657 | 565 ft | 128 kts | 59° |
| 2026-04-24 14:13 | -33.93767 | 151.24046 | 783 ft | 138 kts | 313° |
| 2026-04-24 14:13 | -33.92933 | 151.23314 | 901 ft | 155 kts | 322° |
| 2026-04-24 14:13 | -33.92974 | 151.22197 | 791 ft | 136 kts | 247° |
| 2026-04-24 14:13 | -33.93213 | 151.21201 | 456 ft | 116 kts | 249° |
| 2026-04-24 14:14 | -33.93405 | 151.20396 | 413 ft | 97 kts | 241° |
| 2026-04-24 14:14 | -33.93570 | 151.19687 | 350 ft | 77 kts | 248° |
| 2026-04-24 14:14 | -33.93891 | 151.18385 | 24 ft | 67 kts | 249° |
| 2026-04-24 14:15 | -33.93998 | 151.17964 | 9 ft | 38 kts | 262° |
| 2026-04-24 14:15 | -33.93945 | 151.17787 | 6 ft | 35 kts | 21° |
| 2026-04-24 14:15 | -33.93839 | 151.17787 | 4 ft | 7 kts | 49° |
| 2026-04-24 14:15 | -33.93835 | 151.17799 | 4 ft | 0 kts | 90° |
| 2026-04-24 14:16 | -33.93793 | 151.17973 | 10 ft | 58 kts | 76° |
| 2026-04-24 14:16 | -33.93678 | 151.18469 | 23 ft | 49 kts | 84° |
| 2026-04-24 14:17 | -33.93596 | 151.18806 | 23 ft | 0 kts | 78° |
| 2026-04-24 14:17 | -33.93519 | 151.18854 | 23 ft | 7 kts | 8° |
| 2026-04-24 14:18 | -33.93415 | 151.18886 | 23 ft | 12 kts | 41° |
| 2026-04-24 14:18 | -33.93407 | 151.18944 | 23 ft | 2 kts | 78° |
| 2026-04-24 14:18 | -33.93383 | 151.18965 | 23 ft | 5 kts | 14° |
| 2026-04-24 14:18 | -33.93372 | 151.18980 | 23 ft | 0 kts | 220° |
| 2026-04-24 14:19 | -33.93372 | 151.18979 | 23 ft | 0 kts | 213° |
| 2026-04-24 14:19 | -33.93373 | 151.18979 | 23 ft | 0 kts | 196° |
| 2026-04-24 14:20 | -33.93374 | 151.18979 | 23 ft | 0 kts | 165° |
| 2026-04-24 14:20 | -33.93375 | 151.18980 | 23 ft | 0 kts | 143° |